Time;durP1;ratioP1;P1;durP2;ratioP2;P2;SDS_P1;SDS_P2;PMS_P1;PMS_P2;Temp;Humidity;BMP_temperature;BMP_pressure;BME280_temperature;BME280_humidity;BME280_pressure;Samples;Min_cycle;Max_cycle;Signal;HPM_P1;HPM_P2
2022/07/10 00:01:32;;;;;;;;;2.00;1.00;;;;;23.39;52.27;98539.88;4918324;28;102472;-52
2022/07/10 00:04:00;;;;;;;;;1.00;1.00;;;;;23.39;52.29;98539.88;4910145;28;108961;-52
2022/07/10 00:06:27;;;;;;;;;1.00;1.00;;;;;23.39;52.18;98541.78;4911508;28;102221;-53
2022/07/10 00:08:55;;;;;;;;;1.33;1.33;;;;;23.39;52.35;98542.63;4878347;28;102257;-53
2022/07/10 00:11:22;;;;;;;;;1.00;1.00;;;;;23.37;52.22;98538.50;4916479;28;102537;-53
2022/07/10 00:13:49;;;;;;;;;1.00;1.00;;;;;23.37;52.41;98542.06;4913989;28;105817;-52
2022/07/10 00:16:16;;;;;;;;;2.33;2.00;;;;;23.37;52.33;98539.31;4914550;28;102605;-53
2022/07/10 00:18:44;;;;;;;;;2.00;2.00;;;;;23.37;52.37;98539.31;4909767;28;102478;-53
2022/07/10 00:21:11;;;;;;;;;2.00;2.00;;;;;23.37;52.37;98535.75;4915465;28;102667;-53
2022/07/10 00:23:38;;;;;;;;;1.67;1.67;;;;;23.37;52.24;98533.00;4915406;28;103209;-53
2022/07/10 00:26:09;;;;;;;;;2.00;2.00;;;;;23.36;52.44;98526.66;4922767;28;103195;-53
2022/07/10 00:28:39;;;;;;;;;0.00;0.00;;;;;23.35;52.37;98525.00;4918296;28;103112;-53
2022/07/10 00:31:12;;;;;;;;;3.00;3.00;;;;;23.36;52.37;98520.31;4915423;28;103612;-54
2022/07/10 00:33:40;;;;;;;;;2.00;2.00;;;;;23.35;52.26;98519.47;4917845;28;104072;-53
2022/07/10 00:36:07;;;;;;;;;0.00;0.00;;;;;23.33;52.14;98510.63;4909608;28;102496;-52
2022/07/10 00:38:35;;;;;;;;;1.00;1.00;;;;;23.34;52.50;98505.94;4908887;28;103246;-54
2022/07/10 00:41:05;;;;;;;;;1.33;1.33;;;;;23.35;52.49;98504.84;4920715;28;102481;-53
2022/07/10 00:43:56;;;;;;;;;2.00;2.00;;;;;23.35;52.50;98502.91;4917447;28;109092;-52
2022/07/10 00:46:24;;;;;;;;;1.00;1.00;;;;;23.35;52.39;98502.09;4909022;28;101959;-52
2022/07/10 00:48:51;;;;;;;;;2.00;1.00;;;;;23.35;52.35;98504.84;4912102;28;102663;-52
2022/07/10 00:51:20;;;;;;;;;1.00;1.00;;;;;23.34;52.34;98503.19;4910921;28;102502;-53
2022/07/10 00:53:48;;;;;;;;;2.00;1.00;;;;;23.31;52.47;98489.97;4908679;28;104059;-53
2022/07/10 00:56:23;;;;;;;;;2.00;2.00;;;;;23.32;52.35;98492.47;4909664;28;104039;-53
2022/07/10 00:58:50;;;;;;;;;2.00;2.00;;;;;23.33;52.22;98493.25;4908599;28;102649;-53
2022/07/10 01:01:17;;;;;;;;;2.00;2.00;;;;;23.32;52.35;98494.41;4912407;28;102170;-53
2022/07/10 01:03:47;;;;;;;;;1.33;1.33;;;;;23.30;52.42;98488.31;4903387;28;104010;-52
2022/07/10 01:06:15;;;;;;;;;2.00;2.00;;;;;23.29;52.62;98489.44;4898071;28;105651;-53
2022/07/10 01:08:43;;;;;;;;;2.00;2.00;;;;;23.31;52.34;98489.97;4900968;28;102720;-53
2022/07/10 01:11:10;;;;;;;;;2.00;1.00;;;;;23.30;52.39;98493.84;4892945;28;102513;-53
2022/07/10 01:13:37;;;;;;;;;2.00;1.00;;;;;23.30;52.38;98485.56;4888782;28;104089;-53
2022/07/10 01:16:05;;;;;;;;;1.00;1.00;;;;;23.28;52.19;98485.03;4913076;28;102514;-53
2022/07/10 01:18:32;;;;;;;;;1.67;1.67;;;;;23.28;52.41;98490.56;4911717;28;102155;-53
2022/07/10 01:21:00;;;;;;;;;1.00;1.00;;;;;23.28;52.54;98485.03;4908691;28;102604;-53
2022/07/10 01:23:27;;;;;;;;;1.00;1.00;;;;;23.27;52.56;98481.47;4901680;28;104245;-52
2022/07/10 01:25:54;;;;;;;;;2.67;2.00;;;;;23.29;52.39;98478.38;4907505;28;103156;-53
2022/07/10 01:28:22;;;;;;;;;1.67;1.67;;;;;23.26;52.52;98471.53;4913645;28;104000;-54
2022/07/10 01:30:49;;;;;;;;;1.00;1.00;;;;;23.24;52.46;98464.63;4912529;28;102245;-53
2022/07/10 01:33:16;;;;;;;;;1.67;1.67;;;;;23.24;52.60;98478.41;4910188;28;104138;-53
2022/07/10 01:35:44;;;;;;;;;1.33;1.33;;;;;23.23;52.42;98463.81;4910909;28;102258;-53
2022/07/10 01:38:11;;;;;;;;;1.00;1.00;;;;;23.24;52.56;98461.88;4892905;28;102499;-52
2022/07/10 01:40:38;;;;;;;;;1.00;1.00;;;;;23.25;52.17;98458.00;4907042;28;102517;-53
2022/07/10 01:43:06;;;;;;;;;1.33;1.00;;;;;23.23;52.52;98458.31;4915647;28;104519;-54
2022/07/10 01:45:33;;;;;;;;;2.00;2.00;;;;;23.23;52.52;98454.72;4914020;28;102038;-52
2022/07/10 01:48:00;;;;;;;;;1.33;1.33;;;;;23.23;52.44;98451.97;4909947;28;102679;-53
2022/07/10 01:50:27;;;;;;;;;1.00;1.00;;;;;23.24;52.59;98453.59;4916888;28;102830;-53
2022/07/10 01:52:55;;;;;;;;;1.00;1.00;;;;;23.24;52.37;98443.38;4914682;28;104300;-53
2022/07/10 01:55:22;;;;;;;;;2.00;2.00;;;;;23.25;52.37;98446.97;4913680;28;102403;-53
2022/07/10 01:57:49;;;;;;;;;2.33;2.00;;;;;23.24;52.36;98450.81;4919164;28;103106;-53
2022/07/10 02:00:17;;;;;;;;;3.00;2.00;;;;;23.24;52.49;98445.31;4922025;28;102278;-53
2022/07/10 02:04:40;;;;;;;;;2.00;2.00;;;;;23.23;52.44;98441.75;4918911;28;104132;-53
2022/07/10 02:05:31;;;;;;;;;0.00;0.00;;;;;23.21;52.49;98445.91;4914577;28;102258;-53
2022/07/10 02:07:59;;;;;;;;;2.00;2.00;;;;;23.22;52.58;98447.56;4917334;28;102363;-53
2022/07/10 02:10:26;;;;;;;;;1.00;1.00;;;;;23.21;52.50;98438.44;4914875;28;103870;-52
2022/07/10 02:12:53;;;;;;;;;1.67;1.67;;;;;23.19;52.56;98435.13;4914764;28;104061;-52
2022/07/10 02:15:20;;;;;;;;;1.00;1.00;;;;;23.19;52.57;98426.06;4916501;28;102229;-52
2022/07/10 02:17:47;;;;;;;;;1.00;1.00;;;;;23.21;52.59;98432.09;4917475;28;102616;-53
2022/07/10 02:20:15;;;;;;;;;3.00;2.00;;;;;23.19;52.56;98432.38;4920612;28;102560;-53
2022/07/10 02:22:42;;;;;;;;;1.00;1.00;;;;;23.20;52.53;98433.22;4913051;28;104037;-53
2022/07/10 02:25:09;;;;;;;;;2.00;2.00;;;;;23.18;52.60;98429.94;4916556;28;102223;-54
2022/07/10 02:27:36;;;;;;;;;2.00;2.00;;;;;23.18;52.57;98421.66;4919802;28;102237;-54
2022/07/10 02:30:04;;;;;;;;;1.00;1.00;;;;;23.17;52.59;98414.47;4918524;28;102306;-52
2022/07/10 02:32:31;;;;;;;;;1.00;1.00;;;;;23.18;52.53;98418.91;4913870;28;112600;-53
2022/07/10 02:34:58;;;;;;;;;1.00;1.00;;;;;23.17;52.56;98426.34;4912610;28;102183;-53
2022/07/10 02:37:25;;;;;;;;;1.00;1.00;;;;;23.17;52.62;98425.50;4914078;28;102252;-53
2022/07/10 02:39:52;;;;;;;;;2.00;2.00;;;;;23.17;52.56;98414.47;4918123;28;102890;-53
2022/07/10 02:42:19;;;;;;;;;0.00;0.00;;;;;23.14;52.48;98413.94;4911301;28;104079;-52
2022/07/10 02:44:46;;;;;;;;;3.00;2.00;;;;;23.15;52.50;98414.75;4917027;28;103484;-53
2022/07/10 02:47:13;;;;;;;;;1.00;1.00;;;;;23.16;52.35;98415.59;4913441;28;103955;-53
2022/07/10 02:49:40;;;;;;;;;1.67;1.00;;;;;23.15;52.63;98406.47;4912420;28;102610;-53
2022/07/10 02:52:07;;;;;;;;;2.00;2.00;;;;;23.16;52.55;98408.13;4918941;28;104130;-53
2022/07/10 02:54:37;;;;;;;;;1.33;1.00;;;;;23.17;52.56;98408.97;4917708;28;102260;-53
2022/07/10 02:57:04;;;;;;;;;1.00;1.00;;;;;23.16;52.50;98396.28;4915086;28;103427;-52
2022/07/10 02:59:32;;;;;;;;;1.00;1.00;;;;;23.16;52.42;98399.84;4917461;28;102522;-52
2022/07/10 03:01:59;;;;;;;;;1.00;1.00;;;;;23.15;52.46;98392.69;4912868;28;104372;-53
2022/07/10 03:04:29;;;;;;;;;2.00;2.00;;;;;23.16;52.48;98399.03;4911413;28;104501;-53
2022/07/10 03:06:56;;;;;;;;;2.00;2.00;;;;;23.15;52.55;98398.19;4916019;28;102255;-53
2022/07/10 03:09:25;;;;;;;;;3.00;2.00;;;;;23.13;52.67;98401.28;4917749;28;102234;-52
2022/07/10 03:11:52;;;;;;;;;1.67;1.67;;;;;23.14;52.56;98397.38;4914610;28;104090;-52
2022/07/10 03:14:19;;;;;;;;;2.33;1.00;;;;;23.14;52.52;98402.91;4913427;28;102676;-53
2022/07/10 03:16:47;;;;;;;;;2.00;2.00;;;;;23.13;52.44;98387.47;4914127;28;102272;-53
2022/07/10 03:19:14;;;;;;;;;2.00;2.00;;;;;23.12;52.62;98391.34;4914581;28;103357;-53
2022/07/10 03:21:41;;;;;;;;;2.00;1.67;;;;;23.11;52.61;98392.44;4916278;28;111101;-53
2022/07/10 03:24:08;;;;;;;;;1.00;1.00;;;;;23.12;52.44;98387.75;4914515;28;102993;-53
2022/07/10 03:26:35;;;;;;;;;1.67;1.00;;;;;23.14;52.56;98388.31;4915913;28;102613;-53
2022/07/10 03:29:02;;;;;;;;;1.00;1.00;;;;;23.13;52.39;98398.50;4915174;28;102759;-53
2022/07/10 03:31:29;;;;;;;;;3.00;3.00;;;;;23.13;52.52;98379.19;4914659;28;104090;-52
2022/07/10 03:33:56;;;;;;;;;2.00;2.00;;;;;23.12;52.46;98383.06;4914920;28;104830;-52
2022/07/10 03:36:24;;;;;;;;;4.00;2.00;;;;;23.11;52.61;98380.59;4913771;28;102389;-53
2022/07/10 03:38:51;;;;;;;;;2.00;2.00;;;;;23.10;52.64;98385.28;4914099;28;102479;-53
2022/07/10 03:41:18;;;;;;;;;1.33;1.00;;;;;23.12;52.61;98387.75;4916179;28;104378;-53
2022/07/10 03:43:45;;;;;;;;;1.33;1.33;;;;;23.10;52.58;98377.00;4915256;28;102334;-53
2022/07/10 03:46:12;;;;;;;;;2.67;2.00;;;;;23.12;52.41;98380.31;4912193;28;102289;-52
2022/07/10 03:48:39;;;;;;;;;1.67;1.67;;;;;23.11;52.53;98384.16;4917862;28;102337;-53
2022/07/10 03:51:07;;;;;;;;;2.00;2.00;;;;;23.09;52.46;98383.66;4915493;28;104118;-54
2022/07/10 03:53:34;;;;;;;;;1.67;1.33;;;;;23.09;52.56;98383.66;4918010;28;102447;-53
2022/07/10 03:56:01;;;;;;;;;2.00;2.00;;;;;23.09;52.59;98386.41;4915968;28;102772;-52
2022/07/10 03:58:31;;;;;;;;;3.00;3.00;;;;;23.07;52.58;98385.84;4917534;28;102419;-52
2022/07/10 04:00:58;;;;;;;;;2.00;2.00;;;;;23.09;52.64;98400.19;4913223;28;104017;-53
2022/07/10 04:03:25;;;;;;;;;2.00;2.00;;;;;23.09;52.43;98400.19;4914642;28;102216;-54
2022/07/10 04:05:52;;;;;;;;;1.00;1.00;;;;;23.09;52.57;98388.34;4916201;28;102120;-53
2022/07/10 04:08:19;;;;;;;;;2.00;2.00;;;;;23.09;52.45;98394.69;4917463;28;104143;-53
2022/07/10 04:10:46;;;;;;;;;1.00;1.00;;;;;23.10;52.55;98396.31;4911199;28;104126;-53
2022/07/10 04:13:13;;;;;;;;;1.00;1.00;;;;;23.11;52.54;98397.13;4914552;28;102291;-52
2022/07/10 04:15:40;;;;;;;;;2.00;2.00;;;;;23.11;52.59;98392.44;4911834;28;103036;-53
2022/07/10 04:18:07;;;;;;;;;1.00;1.00;;;;;23.10;52.35;98396.31;4914693;28;103388;-53
2022/07/10 04:20:34;;;;;;;;;1.33;1.33;;;;;23.10;52.33;98401.81;4916863;28;103917;-53
2022/07/10 04:23:02;;;;;;;;;1.33;1.00;;;;;23.11;52.34;98392.44;4918366;28;102771;-53
2022/07/10 04:25:29;;;;;;;;;1.00;1.00;;;;;23.10;52.58;98390.78;4913447;28;103905;-52
2022/07/10 04:27:56;;;;;;;;;2.00;1.33;;;;;23.08;52.57;98401.31;4912849;28;102343;-52
2022/07/10 04:30:23;;;;;;;;;2.00;2.00;;;;;23.06;52.56;98400.75;4912998;28;104087;-52
2022/07/10 04:32:53;;;;;;;;;2.67;2.00;;;;;23.07;52.41;98393.31;4910351;28;102137;-53
2022/07/10 04:35:20;;;;;;;;;1.00;1.00;;;;;23.06;52.58;98403.50;4911983;28;102673;-52
2022/07/10 04:37:47;;;;;;;;;3.00;3.00;;;;;23.07;52.62;98405.16;4915933;28;102426;-53
2022/07/10 04:40:14;;;;;;;;;1.33;1.33;;;;;23.09;52.39;98393.84;4918602;28;103841;-52
2022/07/10 04:42:41;;;;;;;;;2.67;1.67;;;;;23.10;52.46;98395.47;4917367;28;102360;-53
2022/07/10 04:45:09;;;;;;;;;2.00;2.00;;;;;23.08;52.38;98398.53;4908050;28;102342;-53
2022/07/10 04:47:36;;;;;;;;;2.00;2.00;;;;;23.07;52.34;98396.06;4913684;28;102423;-53
2022/07/10 04:50:03;;;;;;;;;1.33;1.33;;;;;23.07;52.55;98398.81;4910735;28;109971;-52
2022/07/10 04:52:30;;;;;;;;;2.33;1.00;;;;;23.07;52.49;98402.41;4907404;28;102359;-53
2022/07/10 04:54:57;;;;;;;;;1.00;1.00;;;;;23.05;52.62;98398.31;4914557;28;103009;-52
2022/07/10 04:57:25;;;;;;;;;2.00;2.00;;;;;23.06;52.45;98410.97;4910670;28;102404;-53
2022/07/10 04:59:53;;;;;;;;;2.00;2.00;;;;;23.06;52.55;98406.28;4905062;28;104153;-53
2022/07/10 05:02:20;;;;;;;;;1.67;1.67;;;;;23.05;52.42;98401.88;4909166;28;102183;-53
2022/07/10 05:04:47;;;;;;;;;2.00;1.33;;;;;23.05;52.66;98403.81;4907867;28;102114;-52
2022/07/10 05:07:15;;;;;;;;;2.33;2.00;;;;;23.06;52.53;98411.78;4910798;28;102559;-53
2022/07/10 05:09:42;;;;;;;;;1.00;1.00;;;;;23.07;52.38;98402.41;4907073;28;104083;-53
2022/07/10 05:12:09;;;;;;;;;2.00;2.00;;;;;23.08;52.44;98404.06;4907490;28;102507;-53
2022/07/10 05:14:36;;;;;;;;;2.00;2.00;;;;;23.10;52.48;98415.63;4913504;28;102331;-53
2022/07/10 05:17:05;;;;;;;;;1.00;1.00;;;;;23.10;52.26;98418.38;4914969;28;102432;-53
2022/07/10 05:19:32;;;;;;;;;2.33;2.00;;;;;23.12;52.26;98416.16;4906458;28;106695;-53
2022/07/10 05:21:59;;;;;;;;;1.00;1.00;;;;;23.11;52.45;98411.75;4910812;28;102919;-53
2022/07/10 05:24:26;;;;;;;;;2.00;1.00;;;;;23.11;52.19;98409.00;4913562;28;104136;-53
2022/07/10 05:26:53;;;;;;;;;1.00;1.00;;;;;23.10;52.27;98407.34;4915796;28;102802;-53
2022/07/10 05:29:20;;;;;;;;;1.67;1.67;;;;;23.11;52.28;98413.69;4912083;28;104021;-52
2022/07/10 05:31:47;;;;;;;;;2.00;2.00;;;;;23.09;52.36;98419.50;4911794;28;109612;-53
2022/07/10 05:34:14;;;;;;;;;3.00;2.67;;;;;23.09;52.39;98427.78;4919058;28;104183;-53
2022/07/10 05:36:41;;;;;;;;;3.00;3.00;;;;;23.08;52.41;98414.25;4913306;28;102590;-53
2022/07/10 05:39:08;;;;;;;;;1.67;1.00;;;;;23.07;52.30;98421.72;4912233;28;104009;-53
2022/07/10 05:41:36;;;;;;;;;2.00;1.67;;;;;23.09;52.26;98426.97;4918779;28;103545;-52
2022/07/10 05:44:03;;;;;;;;;1.67;1.67;;;;;23.11;52.29;98420.03;4916027;28;102189;-53
2022/07/10 05:46:33;;;;;;;;;3.00;2.67;;;;;23.13;52.21;98422.50;4914396;28;102586;-53
2022/07/10 05:49:01;;;;;;;;;2.00;2.00;;;;;23.14;52.07;98415.88;4912263;28;104055;-53
2022/07/10 05:51:30;;;;;;;;;3.00;2.00;;;;;23.15;52.21;98412.00;4912687;28;102125;-53
2022/07/10 05:54:08;;;;;;;;;2.00;1.00;;;;;23.13;52.23;98411.47;4909741;28;102498;-53
2022/07/10 05:56:35;;;;;;;;;3.00;2.00;;;;;23.17;52.07;98406.19;4909705;28;102338;-52
2022/07/10 05:59:02;;;;;;;;;2.00;2.00;;;;;23.17;52.08;98406.19;4910185;28;107399;-53
2022/07/10 06:01:29;;;;;;;;;1.00;1.00;;;;;23.18;52.14;98413.38;4913354;28;102156;-53
2022/07/10 06:03:56;;;;;;;;;2.00;2.00;;;;;23.18;51.94;98414.19;4910783;28;102355;-52
2022/07/10 06:06:23;;;;;;;;;3.00;2.00;;;;;23.18;51.95;98408.69;4915870;28;102251;-52
2022/07/10 06:08:51;;;;;;;;;1.67;1.00;;;;;23.20;51.97;98417.47;4914808;28;104121;-53
2022/07/10 06:11:18;;;;;;;;;1.33;1.33;;;;;23.22;51.82;98409.75;4913858;28;102652;-53
2022/07/10 06:13:45;;;;;;;;;1.67;1.00;;;;;23.24;51.47;98406.69;4912443;28;102343;-53
2022/07/10 06:16:12;;;;;;;;;2.00;2.00;;;;;23.24;51.63;98418.56;4912365;28;102380;-52
2022/07/10 06:18:39;;;;;;;;;1.67;1.67;;;;;23.27;51.40;98408.91;4913310;28;104044;-53
2022/07/10 06:21:10;;;;;;;;;3.00;1.00;;;;;23.30;51.30;98416.59;4915564;28;102496;-53
2022/07/10 06:23:37;;;;;;;;;2.00;1.00;;;;;23.28;51.24;98408.59;4915313;28;102284;-53
2022/07/10 06:26:04;;;;;;;;;1.00;1.00;;;;;23.29;51.50;98407.47;4914223;28;102444;-53
2022/07/10 06:28:34;;;;;;;;;1.00;1.00;;;;;23.28;51.64;98405.81;4912867;28;104233;-52
2022/07/10 06:31:02;;;;;;;;;2.00;2.00;;;;;23.26;51.47;98402.53;4912128;28;102672;-53
2022/07/10 06:33:29;;;;;;;;;3.00;2.00;;;;;23.27;51.55;98395.09;4915119;28;102049;-53
2022/07/10 06:35:56;;;;;;;;;1.00;1.00;;;;;23.27;51.56;98395.09;4914042;28;102555;-53
2022/07/10 06:38:23;;;;;;;;;1.67;1.00;;;;;23.28;51.50;98396.75;4914989;28;104222;-53
2022/07/10 06:40:50;;;;;;;;;2.00;2.00;;;;;23.29;51.36;98401.97;4918216;28;102407;-53
2022/07/10 06:43:17;;;;;;;;;2.00;1.67;;;;;23.31;51.33;98396.16;4915715;28;102288;-52
2022/07/10 06:45:45;;;;;;;;;2.00;1.67;;;;;23.31;51.07;98401.69;4911987;28;102330;-53
2022/07/10 06:48:12;;;;;;;;;1.00;1.00;;;;;23.33;51.32;98397.50;4910569;28;104040;-54
2022/07/10 06:50:39;;;;;;;;;2.00;2.00;;;;;23.34;51.27;98390.88;4919164;28;102683;-53
2022/07/10 06:53:06;;;;;;;;;2.00;2.00;;;;;23.33;51.31;98404.97;4918803;28;104045;-52
2022/07/10 06:55:33;;;;;;;;;1.00;1.00;;;;;23.33;51.38;98404.97;4916458;28;103889;-52
2022/07/10 06:58:01;;;;;;;;;1.00;1.00;;;;;23.33;51.26;98400.28;4911215;28;104035;-52
2022/07/10 07:00:28;;;;;;;;;0.67;0.67;;;;;23.32;51.24;98404.16;4913695;28;102340;-53
2022/07/10 07:02:55;;;;;;;;;1.67;1.67;;;;;23.32;51.37;98406.94;4911559;28;102272;-53
2022/07/10 07:05:23;;;;;;;;;1.67;1.67;;;;;23.31;51.41;98405.28;4916063;28;102572;-52
2022/07/10 07:07:50;;;;;;;;;1.00;1.00;;;;;23.29;51.30;98403.91;4912705;28;104107;-53
2022/07/10 07:10:17;;;;;;;;;1.33;1.33;;;;;23.26;51.52;98408.06;4914665;28;103575;-52
2022/07/10 07:12:44;;;;;;;;;1.00;1.00;;;;;23.28;51.55;98407.78;4919716;28;102798;-53
2022/07/10 07:15:12;;;;;;;;;3.00;1.00;;;;;23.26;51.33;98410.81;4915986;28;102511;-53
2022/07/10 07:23:32;;;;;;;;;2.00;1.00;;;;;23.26;51.61;98421.88;4863190;28;102475;-52
2022/07/10 07:25:59;;;;;;;;;1.00;1.00;;;;;23.26;51.68;98421.03;4889672;28;103852;-52
2022/07/10 07:28:27;;;;;;;;;1.00;1.00;;;;;23.28;51.44;98425.13;4914580;28;104250;-52
2022/07/10 07:30:59;;;;;;;;;1.00;1.00;;;;;23.28;51.59;98430.66;4917568;28;102468;-53
2022/07/10 07:33:27;;;;;;;;;1.67;1.67;;;;;23.28;51.40;98432.63;4916687;28;102743;-53
2022/07/10 07:35:54;;;;;;;;;1.00;1.00;;;;;23.29;51.59;98435.06;4915668;28;102234;-53
2022/07/10 07:38:21;;;;;;;;;1.00;1.00;;;;;23.30;51.42;98430.38;4941544;28;103031;-53
2022/07/10 07:40:48;;;;;;;;;1.00;1.00;;;;;23.32;51.51;98430.94;4917934;28;103362;-53
2022/07/10 07:43:15;;;;;;;;;2.00;2.00;;;;;23.33;51.49;98422.34;4911846;28;103379;-53
2022/07/10 07:45:42;;;;;;;;;1.00;1.00;;;;;23.33;51.20;98427.03;4908478;28;102225;-53
2022/07/10 07:48:09;;;;;;;;;1.00;1.00;;;;;23.33;51.39;98416.81;4944473;28;105114;-53
2022/07/10 07:50:37;;;;;;;;;1.00;1.00;;;;;23.36;51.22;98427.31;4916789;28;102339;-52
2022/07/10 07:53:04;;;;;;;;;1.00;1.00;;;;;23.36;51.29;98432.81;4919549;28;102573;-52
2022/07/10 07:55:32;;;;;;;;;1.00;1.00;;;;;23.37;51.40;98439.19;4919045;28;102492;-53
2022/07/10 07:58:01;;;;;;;;;1.67;1.67;;;;;23.35;51.21;98436.69;4914148;28;104099;-53
2022/07/10 08:00:28;;;;;;;;;2.00;2.00;;;;;23.33;51.15;98438.06;4915219;28;102166;-53
2022/07/10 08:02:56;;;;;;;;;1.67;1.67;;;;;23.34;51.23;98437.78;4917281;28;104314;-53
2022/07/10 08:05:23;;;;;;;;;2.00;1.00;;;;;23.33;51.18;98438.91;4914886;28;102488;-52
2022/07/10 08:07:58;;;;;;;;;1.00;1.00;;;;;23.36;51.25;98440.28;4913754;28;104185;-54
2022/07/10 08:10:26;;;;;;;;;1.00;1.00;;;;;23.37;51.32;98439.97;4916412;28;102398;-53
2022/07/10 08:12:53;;;;;;;;;1.00;1.00;;;;;23.38;51.30;98451.84;4913658;28;102209;-53
2022/07/10 08:15:23;;;;;;;;;1.00;1.00;;;;;23.38;51.04;98449.06;4917593;28;104005;-53
2022/07/10 08:17:52;;;;;;;;;1.00;1.00;;;;;23.39;51.31;98442.44;4915939;28;104935;-53
2022/07/10 08:20:19;;;;;;;;;1.00;1.00;;;;;23.38;51.13;98436.09;4914748;28;102062;-53
2022/07/10 08:22:48;;;;;;;;;1.00;1.00;;;;;23.38;51.10;98451.84;4914914;28;102500;-53
2022/07/10 08:25:21;;;;;;;;;1.00;1.00;;;;;23.40;51.05;98444.09;4916646;28;102594;-53
2022/07/10 08:27:48;;;;;;;;;2.00;1.33;;;;;23.41;50.99;98445.75;4913774;28;104220;-52
2022/07/10 08:30:15;;;;;;;;;0.33;0.33;;;;;23.43;51.07;98444.34;4910548;28;102952;-53
2022/07/10 08:32:42;;;;;;;;;1.00;1.00;;;;;23.44;51.16;98443.28;4911716;28;102194;-53
2022/07/10 08:35:10;;;;;;;;;2.00;2.00;;;;;23.44;51.16;98439.69;4917397;28;102291;-53
2022/07/10 08:37:41;;;;;;;;;1.00;1.00;;;;;23.44;51.02;98432.22;4913035;28;108957;-53
2022/07/10 08:40:14;;;;;;;;;2.00;0.33;;;;;23.47;51.11;98444.63;4913227;28;102168;-53
2022/07/10 08:42:44;;;;;;;;;1.00;1.00;;;;;23.46;51.06;98434.72;4909407;28;102115;-53
2022/07/10 08:45:12;;;;;;;;;1.00;1.00;;;;;23.46;51.13;98430.00;4913535;28;102202;-54
2022/07/10 08:47:41;;;;;;;;;0.00;0.00;;;;;23.47;50.94;98433.59;4914980;28;104169;-53
2022/07/10 08:50:24;;;;;;;;;0.00;0.00;;;;;23.47;50.88;98428.88;4913819;28;102373;-53
2022/07/10 08:53:12;;;;;;;;;1.00;1.00;;;;;23.47;51.20;98425.31;4912147;28;102387;-53
2022/07/10 08:55:40;;;;;;;;;1.00;1.00;;;;;23.46;51.11;98427.22;4916931;28;102492;-52
2022/07/10 08:58:08;;;;;;;;;1.00;1.00;;;;;23.48;50.91;98424.19;4911303;28;108976;-53
2022/07/10 09:00:35;;;;;;;;;1.00;1.00;;;;;23.47;50.98;98434.41;4914141;28;102651;-53
2022/07/10 09:03:02;;;;;;;;;1.33;1.33;;;;;23.47;50.84;98430.81;4921016;28;102238;-53
2022/07/10 09:05:30;;;;;;;;;1.00;1.00;;;;;23.48;51.02;98430.53;4916565;28;104091;-52
2022/07/10 09:07:57;;;;;;;;;1.00;1.00;;;;;23.44;50.86;98450.72;4914559;28;104047;-53
2022/07/10 09:10:25;;;;;;;;;1.00;1.00;;;;;23.46;51.11;98443.00;4911516;28;102236;-52
2022/07/10 09:13:00;;;;;;;;;1.00;1.00;;;;;23.46;50.84;98443.00;4915740;28;102076;-53
2022/07/10 09:15:32;;;;;;;;;2.00;1.00;;;;;23.45;50.84;98442.16;4919236;28;102581;-53
2022/07/10 09:18:07;;;;;;;;;1.67;1.67;;;;;23.45;50.76;98455.16;4922396;28;105121;-54
2022/07/10 09:20:35;;;;;;;;;1.00;1.00;;;;;23.43;50.95;98458.16;4912051;28;102862;-54
2022/07/10 09:23:20;;;;;;;;;0.67;0.67;;;;;23.41;48.87;98459.56;4910611;28;102344;-54
2022/07/10 09:25:48;;;;;;;;;1.00;0.00;;;;;23.34;46.63;98450.75;4914743;28;103381;-53
2022/07/10 09:28:22;;;;;;;;;0.67;0.67;;;;;23.25;45.12;98450.56;4911046;28;104164;-54
2022/07/10 09:30:49;;;;;;;;;1.00;0.33;;;;;23.18;43.93;98447.31;4912696;28;103170;-55
2022/07/10 09:33:26;;;;;;;;;0.00;0.00;;;;;23.11;42.94;98439.34;4909830;28;102326;-54
2022/07/10 09:36:07;;;;;;;;;0.00;0.00;;;;;23.05;41.81;98448.78;4911450;28;102708;-54
2022/07/10 09:38:44;;;;;;;;;0.00;0.00;;;;;23.02;42.60;98440.22;4913291;28;104128;-54
2022/07/10 09:41:21;;;;;;;;;0.00;0.00;;;;;22.96;42.38;98442.22;4911716;28;102250;-55
2022/07/10 09:43:50;;;;;;;;;1.00;0.00;;;;;22.91;41.20;98436.72;4909718;28;103833;-54
2022/07/10 09:46:18;;;;;;;;;1.00;0.00;;;;;22.87;40.97;98429.31;4914508;28;102735;-54
2022/07/10 09:48:45;;;;;;;;;0.00;0.00;;;;;22.85;40.82;98446.13;4913826;28;104060;-54
2022/07/10 09:51:12;;;;;;;;;0.00;0.00;;;;;22.85;41.36;98440.59;4909940;28;102514;-55
2022/07/10 09:53:41;;;;;;;;;0.67;0.00;;;;;22.83;40.78;98440.06;4913838;28;102257;-54
2022/07/10 09:56:09;;;;;;;;;0.00;0.00;;;;;22.79;41.30;98441.72;4913409;28;102595;-54
2022/07/10 09:58:36;;;;;;;;;0.00;0.00;;;;;22.70;39.33;98448.94;4914370;28;108833;-53
2022/07/10 10:01:05;;;;;;;;;0.00;0.00;;;;;22.66;39.90;98448.66;4911009;28;102581;-54
2022/07/10 10:03:37;;;;;;;;;0.00;0.00;;;;;22.64;40.16;98441.78;4909624;28;103295;-54
2022/07/10 10:06:09;;;;;;;;;0.00;0.00;;;;;22.64;40.33;98436.28;4912430;28;102723;-54
2022/07/10 10:08:55;;;;;;;;;0.00;0.00;;;;;22.60;39.07;98441.50;4910583;28;110279;-54
2022/07/10 10:11:23;;;;;;;;;0.00;0.00;;;;;22.58;40.16;98437.41;4904736;28;102967;-54
2022/07/10 10:13:51;;;;;;;;;0.00;0.00;;;;;22.57;39.73;98433.00;4912649;28;103464;-54
2022/07/10 10:16:19;;;;;;;;;0.00;0.00;;;;;22.56;39.89;98436.88;4914049;28;102264;-55
2022/07/10 10:21:31;;;;;;;;;1.00;0.67;;;;;21.87;38.15;98443.13;4916138;28;102293;-54
2022/07/10 10:23:59;;;;;;;;;0.33;0.33;;;;;21.96;39.93;98441.47;4898429;28;102602;-55
2022/07/10 10:26:26;;;;;;;;;1.00;1.00;;;;;22.07;40.41;98442.25;4901068;28;102253;-55
2022/07/10 10:28:54;;;;;;;;;0.00;0.00;;;;;22.17;40.77;98445.00;4915017;28;104117;-55
2022/07/10 10:31:21;;;;;;;;;0.00;0.00;;;;;22.19;38.78;98446.38;4914366;28;105046;-55
2022/07/10 10:33:51;;;;;;;;;0.00;0.00;;;;;22.17;39.81;98447.75;4916862;28;102463;-55
2022/07/10 10:36:37;;;;;;;;;0.00;0.00;;;;;22.19;39.00;98454.66;4916748;28;102270;-55
2022/07/10 10:39:18;;;;;;;;;0.00;0.00;;;;;22.17;39.02;98465.09;4916295;28;104150;-54
2022/07/10 10:41:51;;;;;;;;;0.00;0.00;;;;;22.15;39.75;98453.53;4912872;28;102307;-55
2022/07/10 10:44:18;;;;;;;;;0.00;0.00;;;;;22.09;39.24;98451.91;4916418;28;102477;-54
2022/07/10 10:46:54;;;;;;;;;0.00;0.00;;;;;22.08;39.07;98454.94;4917205;28;102294;-55
2022/07/10 10:49:25;;;;;;;;;0.00;0.00;;;;;22.10;39.29;98447.22;4912696;28;104136;-54
2022/07/10 10:52:19;;;;;;;;;0.00;0.00;;;;;22.08;39.59;98444.75;4912859;28;102299;-56
2022/07/10 10:54:56;;;;;;;;;0.00;0.00;;;;;22.07;38.68;98445.84;4915803;28;103542;-55
2022/07/10 10:57:45;;;;;;;;;0.00;0.00;;;;;22.07;39.60;98436.75;4917528;28;102610;-54
2022/07/10 11:00:16;;;;;;;;;0.00;0.00;;;;;22.07;39.66;98443.09;4908611;28;108909;-55
2022/07/10 11:02:43;;;;;;;;;0.00;0.00;;;;;22.06;39.83;98433.19;4918566;28;102320;-54
2022/07/10 11:05:10;;;;;;;;;0.00;0.00;;;;;22.07;40.25;98443.09;4919251;28;102447;-54
2022/07/10 11:07:59;;;;;;;;;0.00;0.00;;;;;22.06;39.02;98429.63;4918636;28;102242;-55
2022/07/10 11:10:39;;;;;;;;;0.00;0.00;;;;;22.10;40.37;98425.19;4906862;28;108980;-55
2022/07/10 11:13:15;;;;;;;;;0.00;0.00;;;;;22.11;40.57;98419.38;4916935;28;102520;-55
2022/07/10 11:15:46;;;;;;;;;0.67;0.00;;;;;22.11;40.89;98426.84;4913319;28;102910;-55
2022/07/10 11:18:25;;;;;;;;;0.00;0.00;;;;;22.12;41.46;98407.28;4909819;28;102438;-54
2022/07/10 11:20:55;;;;;;;;;0.00;0.00;;;;;22.14;41.09;98413.34;4907607;28;104037;-54
2022/07/10 11:23:34;;;;;;;;;0.00;0.00;;;;;22.17;41.05;98409.19;4913501;28;102200;-55
2022/07/10 11:26:09;;;;;;;;;0.00;0.00;;;;;22.21;41.45;98405.59;4908528;28;102204;-54
2022/07/10 11:28:56;;;;;;;;;0.00;0.00;;;;;22.22;41.57;98407.25;4916218;28;102324;-54
2022/07/10 11:31:23;;;;;;;;;0.33;0.00;;;;;22.22;41.87;98412.75;4905603;28;108999;-54
2022/07/10 11:33:52;;;;;;;;;0.00;0.00;;;;;22.24;41.70;98418.78;4915774;28;102412;-55
2022/07/10 11:36:28;;;;;;;;;0.00;0.00;;;;;22.24;42.04;98416.03;4921331;28;103060;-55
2022/07/10 11:38:57;;;;;;;;;0.00;0.00;;;;;22.25;42.01;98422.38;4913236;28;102290;-54
2022/07/10 11:41:24;;;;;;;;;0.00;0.00;;;;;22.26;42.21;98424.03;4895303;28;104087;-54